sensor_id;sensor_type;location;lat;lon;timestamp;P1;durP1;ratioP1;P2;durP2;ratioP2
47053;SDS011;32811;52.382;5.270;2023-05-02T00:01:12;7.13;;;3.83;;
47053;SDS011;32811;52.382;5.270;2023-05-02T00:03:39;9.07;;;3.80;;
47053;SDS011;32811;52.382;5.270;2023-05-02T00:06:08;5.13;;;2.97;;
47053;SDS011;32811;52.382;5.270;2023-05-02T00:08:35;10.60;;;3.47;;
47053;SDS011;32811;52.382;5.270;2023-05-02T00:11:01;8.73;;;2.63;;
47053;SDS011;32811;52.382;5.270;2023-05-02T00:13:28;11.45;;;2.65;;
47053;SDS011;32811;52.382;5.270;2023-05-02T00:15:55;7.07;;;2.42;;
47053;SDS011;32811;52.382;5.270;2023-05-02T00:18:21;9.80;;;2.47;;
47053;SDS011;32811;52.382;5.270;2023-05-02T00:20:49;8.75;;;2.90;;
47053;SDS011;32811;52.382;5.270;2023-05-02T00:23:16;7.95;;;2.35;;
47053;SDS011;32811;52.382;5.270;2023-05-02T00:25:43;15.80;;;3.00;;
47053;SDS011;32811;52.382;5.270;2023-05-02T00:28:11;6.80;;;2.03;;
47053;SDS011;32811;52.382;5.270;2023-05-02T00:30:45;7.22;;;1.60;;
47053;SDS011;32811;52.382;5.270;2023-05-02T00:33:12;5.63;;;1.17;;
47053;SDS011;32811;52.382;5.270;2023-05-02T00:35:40;5.65;;;1.17;;
47053;SDS011;32811;52.382;5.270;2023-05-02T00:38:07;9.25;;;1.20;;
47053;SDS011;32811;52.382;5.270;2023-05-02T00:40:43;8.82;;;1.75;;
47053;SDS011;32811;52.382;5.270;2023-05-02T00:43:11;12.80;;;2.65;;
47053;SDS011;32811;52.382;5.270;2023-05-02T00:45:38;5.25;;;1.13;;
47053;SDS011;32811;52.382;5.270;2023-05-02T00:48:08;7.82;;;1.05;;
47053;SDS011;32811;52.382;5.270;2023-05-02T00:50:36;5.72;;;1.00;;
47053;SDS011;32811;52.382;5.270;2023-05-02T00:53:06;7.90;;;1.10;;
47053;SDS011;32811;52.382;5.270;2023-05-02T00:55:33;9.05;;;1.55;;
47053;SDS011;32811;52.382;5.270;2023-05-02T00:58:13;14.50;;;1.67;;
47053;SDS011;32811;52.382;5.270;2023-05-02T01:03:30;7.38;;;1.40;;
47053;SDS011;32811;52.382;5.270;2023-05-02T01:06:08;9.15;;;1.45;;
47053;SDS011;32811;52.382;5.270;2023-05-02T01:11:52;7.85;;;1.08;;
47053;SDS011;32811;52.382;5.270;2023-05-02T01:14:18;15.88;;;2.08;;
47053;SDS011;32811;52.382;5.270;2023-05-02T01:16:47;3.10;;;1.10;;
47053;SDS011;32811;52.382;5.270;2023-05-02T01:19:24;9.00;;;1.25;;
47053;SDS011;32811;52.382;5.270;2023-05-02T01:21:55;17.60;;;1.20;;
47053;SDS011;32811;52.382;5.270;2023-05-02T01:24:27;7.68;;;2.05;;
47053;SDS011;32811;52.382;5.270;2023-05-02T01:29:36;7.97;;;2.47;;
47053;SDS011;32811;52.382;5.270;2023-05-02T01:32:05;5.75;;;1.42;;
47053;SDS011;32811;52.382;5.270;2023-05-02T01:34:34;5.07;;;1.00;;
47053;SDS011;32811;52.382;5.270;2023-05-02T01:37:04;5.07;;;1.23;;
47053;SDS011;32811;52.382;5.270;2023-05-02T01:39:32;3.67;;;0.52;;
47053;SDS011;32811;52.382;5.270;2023-05-02T01:42:01;5.38;;;0.80;;
47053;SDS011;32811;52.382;5.270;2023-05-02T01:44:30;4.13;;;0.60;;
47053;SDS011;32811;52.382;5.270;2023-05-02T01:46:59;5.03;;;0.70;;
47053;SDS011;32811;52.382;5.270;2023-05-02T01:49:28;6.40;;;1.10;;
47053;SDS011;32811;52.382;5.270;2023-05-02T01:51:58;4.18;;;1.33;;
47053;SDS011;32811;52.382;5.270;2023-05-02T01:54:29;3.20;;;0.90;;
47053;SDS011;32811;52.382;5.270;2023-05-02T01:56:57;3.95;;;0.70;;
47053;SDS011;32811;52.382;5.270;2023-05-02T01:59:24;5.00;;;0.60;;
47053;SDS011;32811;52.382;5.270;2023-05-02T02:01:54;9.32;;;0.77;;
47053;SDS011;32811;52.382;5.270;2023-05-02T02:04:21;5.38;;;0.63;;
47053;SDS011;32811;52.382;5.270;2023-05-02T02:06:57;8.93;;;0.60;;
47053;SDS011;32811;52.382;5.270;2023-05-02T02:09:27;3.80;;;0.80;;
47053;SDS011;32811;52.382;5.270;2023-05-02T02:12:00;4.57;;;1.17;;
47053;SDS011;32811;52.382;5.270;2023-05-02T02:14:33;5.05;;;0.88;;
47053;SDS011;32811;52.382;5.270;2023-05-02T02:17:04;12.25;;;2.80;;
47053;SDS011;32811;52.382;5.270;2023-05-02T02:19:40;5.55;;;1.55;;
47053;SDS011;32811;52.382;5.270;2023-05-02T02:22:08;4.35;;;0.95;;
47053;SDS011;32811;52.382;5.270;2023-05-02T02:24:37;3.72;;;1.42;;
47053;SDS011;32811;52.382;5.270;2023-05-02T02:27:05;4.28;;;0.65;;
47053;SDS011;32811;52.382;5.270;2023-05-02T02:29:32;12.18;;;1.52;;
47053;SDS011;32811;52.382;5.270;2023-05-02T02:31:58;11.48;;;1.52;;
47053;SDS011;32811;52.382;5.270;2023-05-02T02:34:25;11.73;;;2.08;;
47053;SDS011;32811;52.382;5.270;2023-05-02T02:37:13;9.55;;;0.88;;
47053;SDS011;32811;52.382;5.270;2023-05-02T02:42:36;4.80;;;0.93;;
47053;SDS011;32811;52.382;5.270;2023-05-02T02:53:24;5.07;;;1.02;;
47053;SDS011;32811;52.382;5.270;2023-05-02T02:55:59;7.50;;;1.33;;
47053;SDS011;32811;52.382;5.270;2023-05-02T03:01:10;8.95;;;1.30;;
47053;SDS011;32811;52.382;5.270;2023-05-02T03:03:43;10.00;;;1.38;;
47053;SDS011;32811;52.382;5.270;2023-05-02T03:06:10;6.60;;;1.73;;
47053;SDS011;32811;52.382;5.270;2023-05-02T03:08:38;8.32;;;1.70;;
47053;SDS011;32811;52.382;5.270;2023-05-02T03:11:05;9.80;;;1.65;;
47053;SDS011;32811;52.382;5.270;2023-05-02T03:13:32;7.97;;;1.33;;
47053;SDS011;32811;52.382;5.270;2023-05-02T03:18:56;6.32;;;1.30;;
47053;SDS011;32811;52.382;5.270;2023-05-02T03:21:22;4.43;;;1.10;;
47053;SDS011;32811;52.382;5.270;2023-05-02T03:23:49;7.65;;;1.73;;
47053;SDS011;32811;52.382;5.270;2023-05-02T03:26:16;5.05;;;0.98;;
47053;SDS011;32811;52.382;5.270;2023-05-02T03:28:42;4.43;;;1.38;;
47053;SDS011;32811;52.382;5.270;2023-05-02T03:31:12;7.55;;;0.95;;
47053;SDS011;32811;52.382;5.270;2023-05-02T03:33:40;11.07;;;1.75;;
47053;SDS011;32811;52.382;5.270;2023-05-02T03:36:06;7.70;;;1.20;;
47053;SDS011;32811;52.382;5.270;2023-05-02T03:38:33;5.25;;;1.17;;
47053;SDS011;32811;52.382;5.270;2023-05-02T03:41:00;7.65;;;2.13;;
47053;SDS011;32811;52.382;5.270;2023-05-02T03:43:27;2.88;;;1.13;;
47053;SDS011;32811;52.382;5.270;2023-05-02T03:45:54;4.70;;;1.08;;
47053;SDS011;32811;52.382;5.270;2023-05-02T03:48:21;5.00;;;0.90;;
47053;SDS011;32811;52.382;5.270;2023-05-02T03:50:48;4.18;;;1.25;;
47053;SDS011;32811;52.382;5.270;2023-05-02T03:53:15;14.93;;;1.42;;
47053;SDS011;32811;52.382;5.270;2023-05-02T03:55:42;9.32;;;1.85;;
47053;SDS011;32811;52.382;5.270;2023-05-02T03:58:09;9.63;;;1.25;;
47053;SDS011;32811;52.382;5.270;2023-05-02T04:00:36;9.68;;;1.77;;
47053;SDS011;32811;52.382;5.270;2023-05-02T04:03:03;7.93;;;2.13;;
47053;SDS011;32811;52.382;5.270;2023-05-02T04:05:30;8.05;;;1.25;;
47053;SDS011;32811;52.382;5.270;2023-05-02T04:07:56;10.07;;;2.83;;
47053;SDS011;32811;52.382;5.270;2023-05-02T04:10:23;14.88;;;1.83;;
47053;SDS011;32811;52.382;5.270;2023-05-02T04:12:50;14.43;;;4.30;;
47053;SDS011;32811;52.382;5.270;2023-05-02T04:15:16;23.48;;;4.05;;
47053;SDS011;32811;52.382;5.270;2023-05-02T04:17:43;10.23;;;3.58;;
47053;SDS011;32811;52.382;5.270;2023-05-02T04:20:10;17.15;;;2.55;;
47053;SDS011;32811;52.382;5.270;2023-05-02T04:22:36;11.20;;;1.58;;
47053;SDS011;32811;52.382;5.270;2023-05-02T04:25:05;13.98;;;3.08;;
47053;SDS011;32811;52.382;5.270;2023-05-02T04:27:34;9.40;;;1.85;;
47053;SDS011;32811;52.382;5.270;2023-05-02T04:30:01;18.80;;;2.08;;
47053;SDS011;32811;52.382;5.270;2023-05-02T04:32:28;12.77;;;1.70;;
47053;SDS011;32811;52.382;5.270;2023-05-02T04:34:55;8.95;;;1.77;;
47053;SDS011;32811;52.382;5.270;2023-05-02T04:37:22;10.75;;;2.05;;
47053;SDS011;32811;52.382;5.270;2023-05-02T04:39:48;12.75;;;2.15;;
47053;SDS011;32811;52.382;5.270;2023-05-02T04:42:15;12.05;;;1.95;;
47053;SDS011;32811;52.382;5.270;2023-05-02T04:44:41;12.52;;;3.47;;
47053;SDS011;32811;52.382;5.270;2023-05-02T04:47:08;9.40;;;1.70;;
47053;SDS011;32811;52.382;5.270;2023-05-02T04:49:34;10.18;;;1.80;;
47053;SDS011;32811;52.382;5.270;2023-05-02T04:52:01;8.63;;;1.98;;
47053;SDS011;32811;52.382;5.270;2023-05-02T04:54:28;9.85;;;1.70;;
47053;SDS011;32811;52.382;5.270;2023-05-02T04:56:54;12.23;;;2.72;;
47053;SDS011;32811;52.382;5.270;2023-05-02T04:59:23;10.13;;;1.35;;
47053;SDS011;32811;52.382;5.270;2023-05-02T05:01:52;11.25;;;2.63;;
47053;SDS011;32811;52.382;5.270;2023-05-02T05:04:19;8.98;;;1.60;;
47053;SDS011;32811;52.382;5.270;2023-05-02T05:06:45;19.88;;;3.08;;
47053;SDS011;32811;52.382;5.270;2023-05-02T05:09:13;11.35;;;2.00;;
47053;SDS011;32811;52.382;5.270;2023-05-02T05:11:41;11.45;;;2.08;;
47053;SDS011;32811;52.382;5.270;2023-05-02T05:14:11;9.98;;;1.30;;
47053;SDS011;32811;52.382;5.270;2023-05-02T05:16:38;12.25;;;1.50;;
47053;SDS011;32811;52.382;5.270;2023-05-02T05:19:04;8.68;;;1.38;;
47053;SDS011;32811;52.382;5.270;2023-05-02T05:21:31;10.18;;;2.63;;
47053;SDS011;32811;52.382;5.270;2023-05-02T05:23:58;9.50;;;1.10;;
47053;SDS011;32811;52.382;5.270;2023-05-02T05:26:25;7.95;;;1.33;;
47053;SDS011;32811;52.382;5.270;2023-05-02T05:28:51;8.77;;;1.25;;
47053;SDS011;32811;52.382;5.270;2023-05-02T05:31:18;6.30;;;2.05;;
47053;SDS011;32811;52.382;5.270;2023-05-02T05:33:45;6.97;;;0.70;;
47053;SDS011;32811;52.382;5.270;2023-05-02T05:36:12;4.88;;;0.90;;
47053;SDS011;32811;52.382;5.270;2023-05-02T05:38:42;3.92;;;0.60;;
47053;SDS011;32811;52.382;5.270;2023-05-02T05:41:09;2.47;;;0.60;;
47053;SDS011;32811;52.382;5.270;2023-05-02T05:43:39;6.03;;;0.90;;
47053;SDS011;32811;52.382;5.270;2023-05-02T05:46:05;4.70;;;0.63;;
47053;SDS011;32811;52.382;5.270;2023-05-02T05:48:32;8.18;;;1.55;;
47053;SDS011;32811;52.382;5.270;2023-05-02T05:51:02;6.93;;;1.08;;
47053;SDS011;32811;52.382;5.270;2023-05-02T05:53:32;4.43;;;0.70;;
47053;SDS011;32811;52.382;5.270;2023-05-02T05:56:06;14.38;;;1.60;;
47053;SDS011;32811;52.382;5.270;2023-05-02T05:58:33;14.73;;;1.50;;
47053;SDS011;32811;52.382;5.270;2023-05-02T06:01:00;13.73;;;1.58;;
47053;SDS011;32811;52.382;5.270;2023-05-02T06:03:27;10.77;;;1.98;;
47053;SDS011;32811;52.382;5.270;2023-05-02T06:05:54;11.98;;;2.47;;
47053;SDS011;32811;52.382;5.270;2023-05-02T06:08:20;6.38;;;1.00;;
47053;SDS011;32811;52.382;5.270;2023-05-02T06:10:47;3.83;;;1.20;;
47053;SDS011;32811;52.382;5.270;2023-05-02T06:13:13;9.43;;;1.85;;
47053;SDS011;32811;52.382;5.270;2023-05-02T06:15:40;11.30;;;1.50;;
47053;SDS011;32811;52.382;5.270;2023-05-02T06:18:07;9.98;;;1.80;;
47053;SDS011;32811;52.382;5.270;2023-05-02T06:20:34;11.15;;;1.50;;
47053;SDS011;32811;52.382;5.270;2023-05-02T06:23:02;12.27;;;1.50;;
47053;SDS011;32811;52.382;5.270;2023-05-02T06:25:28;10.75;;;2.28;;
47053;SDS011;32811;52.382;5.270;2023-05-02T06:27:55;9.00;;;1.25;;
47053;SDS011;32811;52.382;5.270;2023-05-02T06:30:21;10.88;;;1.98;;
47053;SDS011;32811;52.382;5.270;2023-05-02T06:32:48;5.22;;;0.93;;
47053;SDS011;32811;52.382;5.270;2023-05-02T06:35:14;10.05;;;1.65;;
47053;SDS011;32811;52.382;5.270;2023-05-02T06:37:41;11.55;;;1.25;;
47053;SDS011;32811;52.382;5.270;2023-05-02T06:40:08;9.77;;;2.53;;
47053;SDS011;32811;52.382;5.270;2023-05-02T06:42:35;6.22;;;1.67;;
47053;SDS011;32811;52.382;5.270;2023-05-02T06:45:02;11.15;;;1.45;;
47053;SDS011;32811;52.382;5.270;2023-05-02T06:47:29;12.60;;;1.88;;
47053;SDS011;32811;52.382;5.270;2023-05-02T06:49:56;8.18;;;1.23;;
47053;SDS011;32811;52.382;5.270;2023-05-02T06:52:23;10.32;;;2.10;;
47053;SDS011;32811;52.382;5.270;2023-05-02T06:54:50;9.05;;;1.27;;
47053;SDS011;32811;52.382;5.270;2023-05-02T06:57:17;9.60;;;1.30;;
47053;SDS011;32811;52.382;5.270;2023-05-02T06:59:43;8.45;;;2.25;;
47053;SDS011;32811;52.382;5.270;2023-05-02T07:02:10;8.70;;;1.92;;
47053;SDS011;32811;52.382;5.270;2023-05-02T07:04:36;6.80;;;0.82;;
47053;SDS011;32811;52.382;5.270;2023-05-02T07:07:03;4.35;;;0.80;;
47053;SDS011;32811;52.382;5.270;2023-05-02T07:09:30;6.47;;;1.00;;
47053;SDS011;32811;52.382;5.270;2023-05-02T07:11:56;4.22;;;0.95;;
47053;SDS011;32811;52.382;5.270;2023-05-02T07:14:23;4.78;;;1.15;;
47053;SDS011;32811;52.382;5.270;2023-05-02T07:16:50;4.22;;;1.00;;
47053;SDS011;32811;52.382;5.270;2023-05-02T07:19:17;11.77;;;1.50;;
47053;SDS011;32811;52.382;5.270;2023-05-02T07:21:43;10.20;;;1.20;;
47053;SDS011;32811;52.382;5.270;2023-05-02T07:24:10;4.28;;;0.63;;
47053;SDS011;32811;52.382;5.270;2023-05-02T07:26:37;5.78;;;1.40;;
47053;SDS011;32811;52.382;5.270;2023-05-02T07:29:04;9.60;;;1.38;;
47053;SDS011;32811;52.382;5.270;2023-05-02T07:31:32;6.03;;;1.30;;
47053;SDS011;32811;52.382;5.270;2023-05-02T07:33:58;3.13;;;0.80;;
47053;SDS011;32811;52.382;5.270;2023-05-02T07:36:25;2.50;;;0.52;;
47053;SDS011;32811;52.382;5.270;2023-05-02T07:38:53;9.85;;;0.85;;
47053;SDS011;32811;52.382;5.270;2023-05-02T07:41:19;5.20;;;0.77;;
47053;SDS011;32811;52.382;5.270;2023-05-02T07:43:46;6.97;;;0.68;;
47053;SDS011;32811;52.382;5.270;2023-05-02T07:46:13;4.30;;;1.27;;
47053;SDS011;32811;52.382;5.270;2023-05-02T07:48:39;3.08;;;0.90;;
47053;SDS011;32811;52.382;5.270;2023-05-02T07:51:08;4.88;;;1.10;;
47053;SDS011;32811;52.382;5.270;2023-05-02T07:53:36;3.65;;;1.13;;
47053;SDS011;32811;52.382;5.270;2023-05-02T07:56:03;3.65;;;0.93;;
47053;SDS011;32811;52.382;5.270;2023-05-02T07:58:34;2.90;;;0.50;;
47053;SDS011;32811;52.382;5.270;2023-05-02T08:01:02;4.40;;;0.90;;
47053;SDS011;32811;52.382;5.270;2023-05-02T08:03:29;8.35;;;1.08;;
47053;SDS011;32811;52.382;5.270;2023-05-02T08:05:56;12.95;;;1.90;;
47053;SDS011;32811;52.382;5.270;2023-05-02T08:08:23;8.00;;;0.90;;
47053;SDS011;32811;52.382;5.270;2023-05-02T08:10:50;3.22;;;0.63;;
47053;SDS011;32811;52.382;5.270;2023-05-02T08:13:16;3.15;;;0.60;;
47053;SDS011;32811;52.382;5.270;2023-05-02T08:15:43;2.63;;;0.52;;
47053;SDS011;32811;52.382;5.270;2023-05-02T08:18:10;6.07;;;0.68;;
47053;SDS011;32811;52.382;5.270;2023-05-02T08:20:37;5.80;;;1.00;;
47053;SDS011;32811;52.382;5.270;2023-05-02T08:23:03;5.50;;;1.05;;
47053;SDS011;32811;52.382;5.270;2023-05-02T08:25:30;4.10;;;0.88;;
47053;SDS011;32811;52.382;5.270;2023-05-02T08:27:57;8.25;;;0.60;;
47053;SDS011;32811;52.382;5.270;2023-05-02T08:30:23;8.38;;;1.00;;
47053;SDS011;32811;52.382;5.270;2023-05-02T08:32:50;2.35;;;0.90;;
47053;SDS011;32811;52.382;5.270;2023-05-02T08:35:16;2.42;;;0.60;;
47053;SDS011;32811;52.382;5.270;2023-05-02T08:37:43;2.85;;;0.80;;
47053;SDS011;32811;52.382;5.270;2023-05-02T08:40:10;4.70;;;1.52;;
47053;SDS011;32811;52.382;5.270;2023-05-02T08:42:40;9.65;;;1.02;;
47053;SDS011;32811;52.382;5.270;2023-05-02T08:45:08;4.38;;;0.98;;
47053;SDS011;32811;52.382;5.270;2023-05-02T08:47:40;7.82;;;0.93;;
47053;SDS011;32811;52.382;5.270;2023-05-02T08:50:10;4.25;;;1.48;;
47053;SDS011;32811;52.382;5.270;2023-05-02T08:52:37;8.10;;;1.00;;
47053;SDS011;32811;52.382;5.270;2023-05-02T08:55:07;2.92;;;0.45;;
47053;SDS011;32811;52.382;5.270;2023-05-02T08:57:34;2.63;;;0.50;;
47053;SDS011;32811;52.382;5.270;2023-05-02T09:00:01;8.75;;;0.93;;
47053;SDS011;32811;52.382;5.270;2023-05-02T09:02:48;4.05;;;0.90;;
47053;SDS011;32811;52.382;5.270;2023-05-02T09:05:25;4.10;;;0.88;;
47053;SDS011;32811;52.382;5.270;2023-05-02T09:07:52;2.55;;;0.80;;
47053;SDS011;32811;52.382;5.270;2023-05-02T09:10:18;2.20;;;0.80;;
47053;SDS011;32811;52.382;5.270;2023-05-02T09:12:46;3.55;;;0.80;;
47053;SDS011;32811;52.382;5.270;2023-05-02T09:15:14;5.53;;;0.85;;
47053;SDS011;32811;52.382;5.270;2023-05-02T09:17:46;6.75;;;1.38;;
47053;SDS011;32811;52.382;5.270;2023-05-02T09:20:14;4.43;;;1.33;;
47053;SDS011;32811;52.382;5.270;2023-05-02T09:22:48;4.03;;;0.90;;
47053;SDS011;32811;52.382;5.270;2023-05-02T09:25:16;5.07;;;0.90;;
47053;SDS011;32811;52.382;5.270;2023-05-02T09:27:50;6.05;;;1.13;;
47053;SDS011;32811;52.382;5.270;2023-05-02T09:30:22;5.68;;;1.17;;
47053;SDS011;32811;52.382;5.270;2023-05-02T09:32:51;2.60;;;1.05;;
47053;SDS011;32811;52.382;5.270;2023-05-02T09:35:21;2.35;;;0.73;;
47053;SDS011;32811;52.382;5.270;2023-05-02T09:37:57;8.32;;;1.13;;
47053;SDS011;32811;52.382;5.270;2023-05-02T09:40:24;4.18;;;0.95;;
47053;SDS011;32811;52.382;5.270;2023-05-02T09:42:52;5.32;;;1.13;;
47053;SDS011;32811;52.382;5.270;2023-05-02T09:45:19;8.85;;;3.22;;
47053;SDS011;32811;52.382;5.270;2023-05-02T09:47:50;6.88;;;1.10;;
47053;SDS011;32811;52.382;5.270;2023-05-02T09:53:00;5.28;;;0.95;;
47053;SDS011;32811;52.382;5.270;2023-05-02T09:55:28;5.50;;;0.90;;
47053;SDS011;32811;52.382;5.270;2023-05-02T09:57:55;3.10;;;1.02;;
47053;SDS011;32811;52.382;5.270;2023-05-02T10:00:21;3.20;;;1.00;;
47053;SDS011;32811;52.382;5.270;2023-05-02T10:02:50;9.30;;;1.52;;
47053;SDS011;32811;52.382;5.270;2023-05-02T10:05:16;4.30;;;0.90;;
47053;SDS011;32811;52.382;5.270;2023-05-02T10:07:45;7.95;;;1.05;;
47053;SDS011;32811;52.382;5.270;2023-05-02T10:10:13;6.22;;;1.13;;
47053;SDS011;32811;52.382;5.270;2023-05-02T10:12:42;8.18;;;1.23;;
47053;SDS011;32811;52.382;5.270;2023-05-02T10:15:11;7.18;;;1.35;;
47053;SDS011;32811;52.382;5.270;2023-05-02T10:17:43;7.95;;;1.23;;
47053;SDS011;32811;52.382;5.270;2023-05-02T10:20:17;4.85;;;1.60;;
47053;SDS011;32811;52.382;5.270;2023-05-02T10:22:48;8.95;;;2.38;;
47053;SDS011;32811;52.382;5.270;2023-05-02T10:25:16;7.95;;;1.20;;
47053;SDS011;32811;52.382;5.270;2023-05-02T10:27:42;8.57;;;1.20;;
47053;SDS011;32811;52.382;5.270;2023-05-02T10:30:11;6.88;;;1.48;;
47053;SDS011;32811;52.382;5.270;2023-05-02T10:32:39;9.57;;;1.30;;
47053;SDS011;32811;52.382;5.270;2023-05-02T10:35:07;6.82;;;1.45;;
47053;SDS011;32811;52.382;5.270;2023-05-02T10:37:35;9.23;;;2.08;;
47053;SDS011;32811;52.382;5.270;2023-05-02T10:40:03;6.97;;;1.10;;
47053;SDS011;32811;52.382;5.270;2023-05-02T10:42:33;9.05;;;2.08;;
47053;SDS011;32811;52.382;5.270;2023-05-02T10:45:51;5.53;;;1.38;;
47053;SDS011;32811;52.382;5.270;2023-05-02T10:48:21;8.30;;;1.98;;
47053;SDS011;32811;52.382;5.270;2023-05-02T10:50:51;8.43;;;1.35;;
47053;SDS011;32811;52.382;5.270;2023-05-02T10:53:35;3.67;;;1.02;;
47053;SDS011;32811;52.382;5.270;2023-05-02T10:56:10;3.40;;;1.10;;
47053;SDS011;32811;52.382;5.270;2023-05-02T10:58:47;3.95;;;1.00;;
47053;SDS011;32811;52.382;5.270;2023-05-02T11:04:01;3.88;;;1.42;;
47053;SDS011;32811;52.382;5.270;2023-05-02T11:06:30;7.00;;;1.75;;
47053;SDS011;32811;52.382;5.270;2023-05-02T11:11:40;10.50;;;2.95;;
47053;SDS011;32811;52.382;5.270;2023-05-02T11:14:08;3.95;;;0.85;;
47053;SDS011;32811;52.382;5.270;2023-05-02T11:24:43;7.63;;;1.48;;
47053;SDS011;32811;52.382;5.270;2023-05-02T11:32:22;9.90;;;2.28;;
47053;SDS011;32811;52.382;5.270;2023-05-02T11:34:50;6.40;;;1.27;;
47053;SDS011;32811;52.382;5.270;2023-05-02T11:37:18;4.40;;;0.90;;
47053;SDS011;32811;52.382;5.270;2023-05-02T11:39:46;7.00;;;0.90;;
47053;SDS011;32811;52.382;5.270;2023-05-02T11:42:28;10.52;;;1.33;;
47053;SDS011;32811;52.382;5.270;2023-05-02T11:44:56;11.57;;;1.75;;
47053;SDS011;32811;52.382;5.270;2023-05-02T11:47:25;4.72;;;1.02;;
47053;SDS011;32811;52.382;5.270;2023-05-02T11:49:56;5.03;;;1.75;;
47053;SDS011;32811;52.382;5.270;2023-05-02T11:52:23;6.32;;;0.82;;
47053;SDS011;32811;52.382;5.270;2023-05-02T11:54:52;5.95;;;1.00;;
47053;SDS011;32811;52.382;5.270;2023-05-02T11:57:21;3.65;;;0.88;;
47053;SDS011;32811;52.382;5.270;2023-05-02T11:59:57;4.38;;;1.10;;
47053;SDS011;32811;52.382;5.270;2023-05-02T12:02:36;6.45;;;0.80;;
47053;SDS011;32811;52.382;5.270;2023-05-02T12:05:05;2.95;;;0.60;;
47053;SDS011;32811;52.382;5.270;2023-05-02T12:07:33;7.50;;;1.20;;
47053;SDS011;32811;52.382;5.270;2023-05-02T12:10:07;2.83;;;0.80;;
47053;SDS011;32811;52.382;5.270;2023-05-02T12:12:35;6.10;;;0.80;;
47053;SDS011;32811;52.382;5.270;2023-05-02T12:15:05;3.67;;;1.00;;
47053;SDS011;32811;52.382;5.270;2023-05-02T12:17:37;7.25;;;1.42;;
47053;SDS011;32811;52.382;5.270;2023-05-02T12:20:08;4.32;;;0.93;;
47053;SDS011;32811;52.382;5.270;2023-05-02T12:22:35;3.22;;;0.93;;
47053;SDS011;32811;52.382;5.270;2023-05-02T12:25:03;7.88;;;1.25;;
47053;SDS011;32811;52.382;5.270;2023-05-02T12:27:30;4.32;;;0.82;;
47053;SDS011;32811;52.382;5.270;2023-05-02T12:29:58;6.15;;;1.80;;
47053;SDS011;32811;52.382;5.270;2023-05-02T12:32:29;2.88;;;0.70;;
47053;SDS011;32811;52.382;5.270;2023-05-02T12:34:58;5.97;;;0.90;;
47053;SDS011;32811;52.382;5.270;2023-05-02T12:37:25;2.85;;;0.90;;
47053;SDS011;32811;52.382;5.270;2023-05-02T12:39:53;5.80;;;1.02;;
47053;SDS011;32811;52.382;5.270;2023-05-02T12:42:21;4.63;;;1.17;;
47053;SDS011;32811;52.382;5.270;2023-05-02T12:44:50;4.72;;;0.65;;
47053;SDS011;32811;52.382;5.270;2023-05-02T12:47:17;4.82;;;1.17;;
47053;SDS011;32811;52.382;5.270;2023-05-02T12:52:18;4.22;;;0.93;;
47053;SDS011;32811;52.382;5.270;2023-05-02T12:54:45;5.28;;;0.63;;
47053;SDS011;32811;52.382;5.270;2023-05-02T12:57:23;8.73;;;2.47;;
47053;SDS011;32811;52.382;5.270;2023-05-02T12:59:51;2.55;;;0.90;;
47053;SDS011;32811;52.382;5.270;2023-05-02T13:02:19;3.78;;;0.65;;
47053;SDS011;32811;52.382;5.270;2023-05-02T13:04:46;6.40;;;0.77;;
47053;SDS011;32811;52.382;5.270;2023-05-02T13:07:13;6.55;;;0.80;;
47053;SDS011;32811;52.382;5.270;2023-05-02T13:09:40;2.70;;;0.60;;
47053;SDS011;32811;52.382;5.270;2023-05-02T13:12:06;4.38;;;0.90;;
47053;SDS011;32811;52.382;5.270;2023-05-02T13:14:33;2.10;;;0.95;;
47053;SDS011;32811;52.382;5.270;2023-05-02T13:17:00;2.67;;;0.73;;
47053;SDS011;32811;52.382;5.270;2023-05-02T13:19:26;2.30;;;0.60;;
47053;SDS011;32811;52.382;5.270;2023-05-02T13:21:56;3.85;;;0.70;;
47053;SDS011;32811;52.382;5.270;2023-05-02T13:24:23;2.80;;;0.60;;
47053;SDS011;32811;52.382;5.270;2023-05-02T13:26:49;3.28;;;0.73;;
47053;SDS011;32811;52.382;5.270;2023-05-02T13:29:16;3.22;;;0.70;;
47053;SDS011;32811;52.382;5.270;2023-05-02T13:31:43;14.63;;;0.70;;
47053;SDS011;32811;52.382;5.270;2023-05-02T13:34:09;8.90;;;1.20;;
47053;SDS011;32811;52.382;5.270;2023-05-02T13:36:36;2.60;;;0.60;;
47053;SDS011;32811;52.382;5.270;2023-05-02T13:39:09;4.57;;;0.75;;
47053;SDS011;32811;52.382;5.270;2023-05-02T13:41:36;4.90;;;0.50;;
47053;SDS011;32811;52.382;5.270;2023-05-02T13:44:02;3.85;;;0.70;;
47053;SDS011;32811;52.382;5.270;2023-05-02T13:46:29;1.48;;;1.17;;
47053;SDS011;32811;52.382;5.270;2023-05-02T13:49:04;1.25;;;0.50;;
47053;SDS011;32811;52.382;5.270;2023-05-02T13:51:31;5.18;;;0.70;;
47053;SDS011;32811;52.382;5.270;2023-05-02T13:53:58;2.65;;;0.50;;
47053;SDS011;32811;52.382;5.270;2023-05-02T13:56:25;2.92;;;0.60;;
47053;SDS011;32811;52.382;5.270;2023-05-02T13:58:52;1.25;;;0.57;;
47053;SDS011;32811;52.382;5.270;2023-05-02T14:01:19;8.00;;;0.98;;
47053;SDS011;32811;52.382;5.270;2023-05-02T14:03:45;2.25;;;0.40;;
47053;SDS011;32811;52.382;5.270;2023-05-02T14:06:12;1.08;;;0.50;;
47053;SDS011;32811;52.382;5.270;2023-05-02T14:08:39;2.25;;;0.50;;
47053;SDS011;32811;52.382;5.270;2023-05-02T14:11:06;7.20;;;0.60;;
47053;SDS011;32811;52.382;5.270;2023-05-02T14:13:32;1.63;;;0.40;;
47053;SDS011;32811;52.382;5.270;2023-05-02T14:15:59;4.13;;;0.65;;
47053;SDS011;32811;52.382;5.270;2023-05-02T14:18:26;2.10;;;0.88;;
47053;SDS011;32811;52.382;5.270;2023-05-02T14:20:52;1.95;;;0.52;;
47053;SDS011;32811;52.382;5.270;2023-05-02T14:23:19;6.95;;;0.60;;
47053;SDS011;32811;52.382;5.270;2023-05-02T14:25:46;3.78;;;0.52;;
47053;SDS011;32811;52.382;5.270;2023-05-02T14:28:12;4.43;;;1.35;;
47053;SDS011;32811;52.382;5.270;2023-05-02T14:30:39;2.47;;;0.30;;
47053;SDS011;32811;52.382;5.270;2023-05-02T14:33:05;2.63;;;0.40;;
47053;SDS011;32811;52.382;5.270;2023-05-02T14:35:32;2.45;;;0.57;;
47053;SDS011;32811;52.382;5.270;2023-05-02T14:37:59;4.20;;;0.40;;
47053;SDS011;32811;52.382;5.270;2023-05-02T14:40:26;2.80;;;0.40;;
47053;SDS011;32811;52.382;5.270;2023-05-02T14:42:52;2.13;;;0.40;;
47053;SDS011;32811;52.382;5.270;2023-05-02T14:45:19;3.25;;;0.60;;
47053;SDS011;32811;52.382;5.270;2023-05-02T14:47:46;5.50;;;0.45;;
47053;SDS011;32811;52.382;5.270;2023-05-02T14:50:13;2.63;;;0.43;;
47053;SDS011;32811;52.382;5.270;2023-05-02T14:52:39;2.50;;;0.60;;
47053;SDS011;32811;52.382;5.270;2023-05-02T14:55:06;1.88;;;1.20;;
47053;SDS011;32811;52.382;5.270;2023-05-02T14:57:34;4.53;;;0.75;;
47053;SDS011;32811;52.382;5.270;2023-05-02T15:00:00;2.35;;;0.45;;
47053;SDS011;32811;52.382;5.270;2023-05-02T15:02:28;6.35;;;0.68;;
47053;SDS011;32811;52.382;5.270;2023-05-02T15:04:55;1.00;;;0.40;;
47053;SDS011;32811;52.382;5.270;2023-05-02T15:07:21;1.77;;;0.60;;
47053;SDS011;32811;52.382;5.270;2023-05-02T15:09:48;1.85;;;0.40;;
47053;SDS011;32811;52.382;5.270;2023-05-02T15:12:15;2.95;;;0.65;;
47053;SDS011;32811;52.382;5.270;2023-05-02T15:14:41;2.60;;;0.30;;
47053;SDS011;32811;52.382;5.270;2023-05-02T15:17:08;5.13;;;1.20;;
47053;SDS011;32811;52.382;5.270;2023-05-02T15:19:35;0.90;;;0.52;;
47053;SDS011;32811;52.382;5.270;2023-05-02T15:22:01;7.70;;;0.50;;
47053;SDS011;32811;52.382;5.270;2023-05-02T15:24:28;3.15;;;0.73;;
47053;SDS011;32811;52.382;5.270;2023-05-02T15:26:55;1.95;;;0.68;;
47053;SDS011;32811;52.382;5.270;2023-05-02T15:29:21;1.35;;;0.50;;
47053;SDS011;32811;52.382;5.270;2023-05-02T15:31:48;3.35;;;0.25;;
47053;SDS011;32811;52.382;5.270;2023-05-02T15:34:15;1.35;;;0.40;;
47053;SDS011;32811;52.382;5.270;2023-05-02T15:36:41;5.97;;;0.40;;
47053;SDS011;32811;52.382;5.270;2023-05-02T15:39:08;4.07;;;0.50;;
47053;SDS011;32811;52.382;5.270;2023-05-02T15:41:35;3.38;;;0.30;;